Time;durP1;ratioP1;P1;durP2;ratioP2;P2;SDS_P1;SDS_P2;PMS_P1;PMS_P2;Temp;Humidity;BMP_temperature;BMP_pressure;BME280_temperature;BME280_humidity;BME280_pressure;Samples;Min_cycle;Max_cycle;Signal;HPM_P1;HPM_P2
2024/02/29 00:00:27;;;;;;;60.5;32.3;;;;;;;;;;;;;
2024/02/29 00:02:53;;;;;;;61.1;31.6;;;;;;;;;;;;;
2024/02/29 00:05:18;;;;;;;62;31.6;;;;;;;;;;;;;
2024/02/29 00:07:43;;;;;;;63.8;31.6;;;;;;;;;;;;;
2024/02/29 00:10:08;;;;;;;62.1;33.2;;;;;;;;;;;;;
2024/02/29 00:12:33;;;;;;;67.4;32;;;;;;;;;;;;;
2024/02/29 00:14:58;;;;;;;68.7;33.2;;;;;;;;;;;;;
2024/02/29 00:17:23;;;;;;;67.7;31.7;;;;;;;;;;;;;
2024/02/29 00:19:48;;;;;;;66.3;33.4;;;;;;;;;;;;;
2024/02/29 00:22:13;;;;;;;64.4;32;;;;;;;;;;;;;
2024/02/29 00:24:38;;;;;;;63.5;33.2;;;;;;;;;;;;;
2024/02/29 00:27:03;;;;;;;64.5;32.6;;;;;;;;;;;;;
2024/02/29 00:29:29;;;;;;;66.3;32.5;;;;;;;;;;;;;
2024/02/29 00:32:00;;;;;;;65.4;32.4;;;;;;;;;;;;;
2024/02/29 00:34:19;;;;;;;74.4;35.1;;;;;;;;;;;;;
2024/02/29 00:36:44;;;;;;;71.2;35.1;;;;;;;;;;;;;
2024/02/29 00:39:10;;;;;;;74.3;34.4;;;;;;;;;;;;;
2024/02/29 00:41:34;;;;;;;74.5;35.8;;;;;;;;;;;;;
2024/02/29 00:43:59;;;;;;;76.3;36.7;;;;;;;;;;;;;
2024/02/29 00:46:25;;;;;;;76.6;35.2;;;;;;;;;;;;;
2024/02/29 00:48:52;;;;;;;77.1;35.7;;;;;;;;;;;;;
2024/02/29 00:51:15;;;;;;;74;35.9;;;;;;;;;;;;;
2024/02/29 00:53:40;;;;;;;78.6;36.1;;;;;;;;;;;;;
2024/02/29 00:56:05;;;;;;;82;37.5;;;;;;;;;;;;;
2024/02/29 00:58:30;;;;;;;81.1;37.9;;;;;;;;;;;;;
2024/02/29 01:00:56;;;;;;;88.7;40.5;;;;;;;;;;;;;
2024/02/29 01:03:22;;;;;;;84.7;38.4;;;;;;;;;;;;;
2024/02/29 01:05:46;;;;;;;87.2;40.9;;;;;;;;;;;;;
2024/02/29 01:08:11;;;;;;;86.2;39.2;;;;;;;;;;;;;
2024/02/29 01:10:36;;;;;;;87.1;40.7;;;;;;;;;;;;;
2024/02/29 01:13:01;;;;;;;91.6;40.6;;;;;;;;;;;;;
2024/02/29 01:15:26;;;;;;;93.4;40.4;;;;;;;;;;;;;
2024/02/29 01:17:52;;;;;;;87.7;39.6;;;;;;;;;;;;;
2024/02/29 01:20:16;;;;;;;91.2;40.3;;;;;;;;;;;;;
2024/02/29 01:22:41;;;;;;;88.3;39.4;;;;;;;;;;;;;
2024/02/29 01:25:06;;;;;;;100.4;42.3;;;;;;;;;;;;;
2024/02/29 01:27:32;;;;;;;94.4;40.5;;;;;;;;;;;;;
2024/02/29 01:29:57;;;;;;;92;40;;;;;;;;;;;;;
2024/02/29 01:32:21;;;;;;;91.6;39.9;;;;;;;;;;;;;
2024/02/29 01:34:47;;;;;;;91.8;40.7;;;;;;;;;;;;;
2024/02/29 01:37:12;;;;;;;90.2;39.6;;;;;;;;;;;;;
2024/02/29 01:39:37;;;;;;;89.8;40.5;;;;;;;;;;;;;
2024/02/29 01:42:02;;;;;;;93.5;40.2;;;;;;;;;;;;;
2024/02/29 01:44:27;;;;;;;88.4;40.7;;;;;;;;;;;;;
2024/02/29 01:46:52;;;;;;;88.1;38.2;;;;;;;;;;;;;
2024/02/29 01:49:18;;;;;;;91.9;39.6;;;;;;;;;;;;;
2024/02/29 01:51:43;;;;;;;88.2;39.4;;;;;;;;;;;;;
2024/02/29 01:54:08;;;;;;;84;38.7;;;;;;;;;;;;;
2024/02/29 01:56:33;;;;;;;79.4;38.6;;;;;;;;;;;;;
2024/02/29 01:58:58;;;;;;;85.2;39.7;;;;;;;;;;;;;
2024/02/29 02:01:23;;;;;;;90.8;38.3;;;;;;;;;;;;;
2024/02/29 02:03:52;;;;;;;82;37.9;;;;;;;;;;;;;
2024/02/29 02:06:14;;;;;;;84.8;38.3;;;;;;;;;;;;;
2024/02/29 02:08:38;;;;;;;84.7;38;;;;;;;;;;;;;
2024/02/29 02:11:04;;;;;;;84.4;36.8;;;;;;;;;;;;;
2024/02/29 02:13:29;;;;;;;85.1;37.7;;;;;;;;;;;;;
2024/02/29 02:15:54;;;;;;;85.2;38.3;;;;;;;;;;;;;
2024/02/29 02:18:19;;;;;;;82.5;38.3;;;;;;;;;;;;;
2024/02/29 02:20:45;;;;;;;82.3;37.1;;;;;;;;;;;;;
2024/02/29 02:23:09;;;;;;;89.4;38.1;;;;;;;;;;;;;
2024/02/29 02:25:34;;;;;;;84.2;38.5;;;;;;;;;;;;;
2024/02/29 02:28:00;;;;;;;79.3;37.6;;;;;;;;;;;;;
2024/02/29 02:30:25;;;;;;;90.2;37.6;;;;;;;;;;;;;
2024/02/29 02:32:50;;;;;;;79.9;37.4;;;;;;;;;;;;;
2024/02/29 02:35:15;;;;;;;82.2;37.6;;;;;;;;;;;;;
2024/02/29 02:37:40;;;;;;;91.7;40.3;;;;;;;;;;;;;
2024/02/29 02:40:06;;;;;;;82.6;37.4;;;;;;;;;;;;;
2024/02/29 02:42:32;;;;;;;84.2;39.2;;;;;;;;;;;;;
2024/02/29 02:44:56;;;;;;;88.3;38.1;;;;;;;;;;;;;
2024/02/29 02:47:21;;;;;;;86.7;38.1;;;;;;;;;;;;;
2024/02/29 02:49:46;;;;;;;86.6;39;;;;;;;;;;;;;
2024/02/29 02:52:11;;;;;;;83.6;36.5;;;;;;;;;;;;;
2024/02/29 02:54:36;;;;;;;90.9;38.8;;;;;;;;;;;;;
2024/02/29 02:57:01;;;;;;;89.1;39.5;;;;;;;;;;;;;
2024/02/29 02:59:26;;;;;;;88.1;39.8;;;;;;;;;;;;;
2024/02/29 03:01:52;;;;;;;85.5;39.1;;;;;;;;;;;;;
2024/02/29 03:04:17;;;;;;;91.2;40.1;;;;;;;;;;;;;
2024/02/29 03:06:42;;;;;;;87.9;38.5;;;;;;;;;;;;;
2024/02/29 03:09:08;;;;;;;91.8;40;;;;;;;;;;;;;
2024/02/29 03:11:33;;;;;;;88.1;38.4;;;;;;;;;;;;;
2024/02/29 03:13:58;;;;;;;89.8;40;;;;;;;;;;;;;
2024/02/29 03:16:24;;;;;;;84.1;37.7;;;;;;;;;;;;;
2024/02/29 03:18:48;;;;;;;99.1;41.1;;;;;;;;;;;;;
2024/02/29 03:21:14;;;;;;;87.5;38.9;;;;;;;;;;;;;
2024/02/29 03:23:38;;;;;;;84.6;38.7;;;;;;;;;;;;;
2024/02/29 03:26:04;;;;;;;84.2;38.8;;;;;;;;;;;;;
2024/02/29 03:28:28;;;;;;;87.9;37.8;;;;;;;;;;;;;
2024/02/29 03:30:55;;;;;;;83.3;38.6;;;;;;;;;;;;;
2024/02/29 03:33:19;;;;;;;89;39.1;;;;;;;;;;;;;
2024/02/29 03:35:44;;;;;;;81.9;36.4;;;;;;;;;;;;;
2024/02/29 03:38:11;;;;;;;83.1;37.7;;;;;;;;;;;;;
2024/02/29 03:40:34;;;;;;;81.5;36.9;;;;;;;;;;;;;
2024/02/29 03:42:59;;;;;;;84.1;37.8;;;;;;;;;;;;;
2024/02/29 03:45:24;;;;;;;85.9;38.2;;;;;;;;;;;;;
2024/02/29 03:47:49;;;;;;;87.9;37;;;;;;;;;;;;;
2024/02/29 03:50:14;;;;;;;84.8;35.9;;;;;;;;;;;;;
2024/02/29 03:52:40;;;;;;;90.1;37.6;;;;;;;;;;;;;
2024/02/29 03:55:05;;;;;;;91;39.2;;;;;;;;;;;;;
2024/02/29 03:57:30;;;;;;;86.1;38.3;;;;;;;;;;;;;
2024/02/29 03:59:55;;;;;;;89.9;39.3;;;;;;;;;;;;;
2024/02/29 04:02:30;;;;;;;92.3;40.1;;;;;;;;;;;;;
2024/02/29 04:04:55;;;;;;;94.5;39.7;;;;;;;;;;;;;
2024/02/29 04:07:20;;;;;;;90.6;38.4;;;;;;;;;;;;;
2024/02/29 04:09:45;;;;;;;88.7;38;;;;;;;;;;;;;
2024/02/29 04:12:10;;;;;;;87.2;37.4;;;;;;;;;;;;;
2024/02/29 04:14:38;;;;;;;90.6;38.3;;;;;;;;;;;;;
2024/02/29 04:17:00;;;;;;;92.9;39.5;;;;;;;;;;;;;
2024/02/29 04:19:25;;;;;;;94.2;39.9;;;;;;;;;;;;;
2024/02/29 04:21:51;;;;;;;96;41.3;;;;;;;;;;;;;
2024/02/29 04:24:16;;;;;;;95.2;40.2;;;;;;;;;;;;;
2024/02/29 04:26:41;;;;;;;98.1;40.3;;;;;;;;;;;;;
2024/02/29 04:29:06;;;;;;;90.5;39.8;;;;;;;;;;;;;
2024/02/29 04:31:31;;;;;;;94.2;38.9;;;;;;;;;;;;;
2024/02/29 04:33:57;;;;;;;89.2;39.1;;;;;;;;;;;;;
2024/02/29 04:36:21;;;;;;;86;38.7;;;;;;;;;;;;;
2024/02/29 04:38:47;;;;;;;90.7;38.3;;;;;;;;;;;;;
2024/02/29 04:41:12;;;;;;;89;40;;;;;;;;;;;;;
2024/02/29 04:43:37;;;;;;;95.2;40.2;;;;;;;;;;;;;
2024/02/29 04:46:03;;;;;;;102.1;40.4;;;;;;;;;;;;;
2024/02/29 04:48:27;;;;;;;98.1;40.8;;;;;;;;;;;;;
2024/02/29 04:50:52;;;;;;;100.5;40.2;;;;;;;;;;;;;
2024/02/29 04:53:17;;;;;;;100.8;42;;;;;;;;;;;;;
2024/02/29 04:55:42;;;;;;;92.1;39.1;;;;;;;;;;;;;
2024/02/29 04:58:07;;;;;;;89;38.1;;;;;;;;;;;;;
2024/02/29 05:00:32;;;;;;;87.8;38.3;;;;;;;;;;;;;
2024/02/29 05:02:58;;;;;;;97.1;41.3;;;;;;;;;;;;;
2024/02/29 05:05:23;;;;;;;103.9;40.9;;;;;;;;;;;;;
2024/02/29 05:07:48;;;;;;;97.4;41.2;;;;;;;;;;;;;
2024/02/29 05:10:13;;;;;;;93.9;39.1;;;;;;;;;;;;;
2024/02/29 05:12:38;;;;;;;99.4;39.5;;;;;;;;;;;;;
2024/02/29 05:15:04;;;;;;;102.7;39.3;;;;;;;;;;;;;
2024/02/29 05:19:37;;;;;;;93.2;38.3;;;;;;;;;;;;;
2024/02/29 05:22:02;;;;;;;93.1;38.2;;;;;;;;;;;;;
2024/02/29 05:24:25;;;;;;;87;37;;;;;;;;;;;;;
2024/02/29 05:26:51;;;;;;;93.3;39.1;;;;;;;;;;;;;
2024/02/29 05:29:16;;;;;;;98.1;38.4;;;;;;;;;;;;;
2024/02/29 05:31:41;;;;;;;95.8;37.9;;;;;;;;;;;;;
2024/02/29 05:34:07;;;;;;;94.7;39.7;;;;;;;;;;;;;
2024/02/29 05:36:31;;;;;;;91.6;38.5;;;;;;;;;;;;;
2024/02/29 05:38:56;;;;;;;100.7;39.4;;;;;;;;;;;;;
2024/02/29 05:41:21;;;;;;;91.4;38.5;;;;;;;;;;;;;
2024/02/29 05:43:47;;;;;;;91.3;38.8;;;;;;;;;;;;;
2024/02/29 05:46:12;;;;;;;92.2;37.5;;;;;;;;;;;;;
2024/02/29 05:48:37;;;;;;;82.5;36.9;;;;;;;;;;;;;
2024/02/29 05:51:02;;;;;;;88.7;37.5;;;;;;;;;;;;;
2024/02/29 05:53:27;;;;;;;86.4;36.5;;;;;;;;;;;;;
2024/02/29 05:55:52;;;;;;;81.1;35.8;;;;;;;;;;;;;
2024/02/29 05:58:18;;;;;;;85.8;35.2;;;;;;;;;;;;;
2024/02/29 06:00:42;;;;;;;83.3;35.7;;;;;;;;;;;;;
2024/02/29 06:03:07;;;;;;;84.7;34.1;;;;;;;;;;;;;
2024/02/29 06:05:35;;;;;;;80;33.3;;;;;;;;;;;;;
2024/02/29 06:07:58;;;;;;;70.4;30.7;;;;;;;;;;;;;
2024/02/29 06:10:22;;;;;;;71.4;32.2;;;;;;;;;;;;;
2024/02/29 06:12:48;;;;;;;71.8;30.3;;;;;;;;;;;;;
2024/02/29 06:15:13;;;;;;;67.7;30.2;;;;;;;;;;;;;
2024/02/29 06:17:38;;;;;;;61.9;28;;;;;;;;;;;;;
2024/02/29 06:20:03;;;;;;;60.3;25.8;;;;;;;;;;;;;
2024/02/29 06:22:28;;;;;;;60.2;27;;;;;;;;;;;;;
2024/02/29 06:24:53;;;;;;;58.4;26.2;;;;;;;;;;;;;
2024/02/29 06:27:18;;;;;;;56.8;25.8;;;;;;;;;;;;;
2024/02/29 06:29:44;;;;;;;51.5;24.4;;;;;;;;;;;;;
2024/02/29 06:32:09;;;;;;;55.1;24.5;;;;;;;;;;;;;
2024/02/29 06:34:34;;;;;;;47.3;23.8;;;;;;;;;;;;;
2024/02/29 06:36:59;;;;;;;52;24.3;;;;;;;;;;;;;
2024/02/29 06:39:24;;;;;;;49.9;21.9;;;;;;;;;;;;;
2024/02/29 06:41:49;;;;;;;45;20.9;;;;;;;;;;;;;
2024/02/29 06:44:16;;;;;;;34.4;17.2;;;;;;;;;;;;;
2024/02/29 06:46:39;;;;;;;31.2;16.3;;;;;;;;;;;;;
2024/02/29 06:49:06;;;;;;;25.3;13.1;;;;;;;;;;;;;
2024/02/29 06:51:30;;;;;;;24.2;12.6;;;;;;;;;;;;;
2024/02/29 06:53:55;;;;;;;26.1;12.9;;;;;;;;;;;;;
2024/02/29 06:56:19;;;;;;;24.3;12.2;;;;;;;;;;;;;
2024/02/29 06:58:45;;;;;;;26.4;14;;;;;;;;;;;;;
2024/02/29 07:01:11;;;;;;;21.9;12.4;;;;;;;;;;;;;
2024/02/29 07:03:35;;;;;;;23.5;12.5;;;;;;;;;;;;;
2024/02/29 07:06:00;;;;;;;20.1;11.4;;;;;;;;;;;;;
2024/02/29 07:08:25;;;;;;;21;11.5;;;;;;;;;;;;;
2024/02/29 07:10:50;;;;;;;21.6;11.4;;;;;;;;;;;;;
2024/02/29 07:13:15;;;;;;;17.4;10.5;;;;;;;;;;;;;
2024/02/29 07:15:40;;;;;;;16.5;9.6;;;;;;;;;;;;;
2024/02/29 07:18:06;;;;;;;18;10.1;;;;;;;;;;;;;
2024/02/29 07:20:31;;;;;;;19.8;10;;;;;;;;;;;;;
2024/02/29 07:22:56;;;;;;;17.5;9.8;;;;;;;;;;;;;
2024/02/29 07:25:21;;;;;;;17.4;9.7;;;;;;;;;;;;;
2024/02/29 07:27:48;;;;;;;16;10.3;;;;;;;;;;;;;
2024/02/29 07:30:11;;;;;;;17;9.8;;;;;;;;;;;;;
2024/02/29 07:32:36;;;;;;;14.7;8.6;;;;;;;;;;;;;
2024/02/29 07:35:01;;;;;;;13.6;8.6;;;;;;;;;;;;;
2024/02/29 07:37:26;;;;;;;15.8;8.9;;;;;;;;;;;;;
2024/02/29 07:39:51;;;;;;;16.1;9.1;;;;;;;;;;;;;
2024/02/29 07:42:16;;;;;;;31.9;10.8;;;;;;;;;;;;;
2024/02/29 07:44:41;;;;;;;14;7.9;;;;;;;;;;;;;
2024/02/29 07:47:06;;;;;;;21.1;8.7;;;;;;;;;;;;;
2024/02/29 07:49:33;;;;;;;31.1;10.4;;;;;;;;;;;;;
2024/02/29 07:51:58;;;;;;;27.6;8.3;;;;;;;;;;;;;
2024/02/29 07:54:22;;;;;;;27.6;9.4;;;;;;;;;;;;;
2024/02/29 07:56:46;;;;;;;13.4;7.2;;;;;;;;;;;;;
2024/02/29 07:59:12;;;;;;;16.6;7.5;;;;;;;;;;;;;
2024/02/29 08:01:38;;;;;;;16.1;7.7;;;;;;;;;;;;;
2024/02/29 08:04:02;;;;;;;11;6.6;;;;;;;;;;;;;
2024/02/29 08:06:27;;;;;;;12;6.8;;;;;;;;;;;;;
2024/02/29 08:08:52;;;;;;;10.6;5.9;;;;;;;;;;;;;
2024/02/29 08:11:17;;;;;;;10.2;6.6;;;;;;;;;;;;;
2024/02/29 08:13:45;;;;;;;11.8;6.7;;;;;;;;;;;;;
2024/02/29 08:16:07;;;;;;;8.9;6.4;;;;;;;;;;;;;
2024/02/29 08:18:33;;;;;;;13.5;7.2;;;;;;;;;;;;;
2024/02/29 08:20:58;;;;;;;11;6.6;;;;;;;;;;;;;
2024/02/29 08:23:22;;;;;;;13.5;6.8;;;;;;;;;;;;;
2024/02/29 08:25:47;;;;;;;11.2;6.3;;;;;;;;;;;;;
2024/02/29 08:28:13;;;;;;;10.8;6.3;;;;;;;;;;;;;
2024/02/29 08:30:38;;;;;;;10.5;7.3;;;;;;;;;;;;;
2024/02/29 08:33:03;;;;;;;13.9;7.3;;;;;;;;;;;;;
2024/02/29 08:35:29;;;;;;;10.5;6.5;;;;;;;;;;;;;
2024/02/29 08:37:53;;;;;;;9.4;5.7;;;;;;;;;;;;;
2024/02/29 08:40:19;;;;;;;7.3;5.5;;;;;;;;;;;;;
2024/02/29 08:42:43;;;;;;;9.3;5.5;;;;;;;;;;;;;
2024/02/29 08:45:08;;;;;;;10.2;5.8;;;;;;;;;;;;;
2024/02/29 08:47:33;;;;;;;9.4;6.7;;;;;;;;;;;;;
2024/02/29 08:49:59;;;;;;;9.8;6.6;;;;;;;;;;;;;
2024/02/29 08:52:24;;;;;;;8.2;6.1;;;;;;;;;;;;;
2024/02/29 08:54:49;;;;;;;12.8;6.9;;;;;;;;;;;;;
2024/02/29 08:57:14;;;;;;;9.4;6.3;;;;;;;;;;;;;
2024/02/29 08:59:39;;;;;;;9.4;6.6;;;;;;;;;;;;;
2024/02/29 09:02:05;;;;;;;11;6.4;;;;;;;;;;;;;
2024/02/29 09:04:29;;;;;;;9.7;6.3;;;;;;;;;;;;;
2024/02/29 09:06:56;;;;;;;9.6;6.2;;;;;;;;;;;;;
2024/02/29 09:09:20;;;;;;;9.6;6.1;;;;;;;;;;;;;
2024/02/29 09:11:46;;;;;;;12.5;6.6;;;;;;;;;;;;;
2024/02/29 09:14:10;;;;;;;10.7;6.6;;;;;;;;;;;;;
2024/02/29 09:16:37;;;;;;;9.9;6.3;;;;;;;;;;;;;
2024/02/29 09:19:01;;;;;;;10.2;6.5;;;;;;;;;;;;;
2024/02/29 09:21:26;;;;;;;10.3;6.1;;;;;;;;;;;;;
2024/02/29 09:23:51;;;;;;;10.2;6;;;;;;;;;;;;;
2024/02/29 09:26:18;;;;;;;11;6.3;;;;;;;;;;;;;
2024/02/29 09:28:41;;;;;;;9;6.1;;;;;;;;;;;;;
2024/02/29 09:31:06;;;;;;;10.2;6.1;;;;;;;;;;;;;
2024/02/29 09:33:31;;;;;;;11.8;7.6;;;;;;;;;;;;;
2024/02/29 09:35:57;;;;;;;13.2;8.1;;;;;;;;;;;;;
2024/02/29 09:38:22;;;;;;;12;6.9;;;;;;;;;;;;;
2024/02/29 09:40:47;;;;;;;9.7;6.4;;;;;;;;;;;;;
2024/02/29 09:43:12;;;;;;;12.4;7.9;;;;;;;;;;;;;
2024/02/29 09:45:37;;;;;;;12.4;7.6;;;;;;;;;;;;;
2024/02/29 09:48:02;;;;;;;14.9;8.6;;;;;;;;;;;;;
2024/02/29 09:50:27;;;;;;;18.3;9.3;;;;;;;;;;;;;
2024/02/29 09:52:52;;;;;;;21.7;10;;;;;;;;;;;;;
2024/02/29 09:55:18;;;;;;;16.2;9.4;;;;;;;;;;;;;
2024/02/29 09:57:43;;;;;;;18.1;10.7;;;;;;;;;;;;;
2024/02/29 10:00:10;;;;;;;19.8;10.5;;;;;;;;;;;;;
2024/02/29 10:02:33;;;;;;;18.4;10.1;;;;;;;;;;;;;
2024/02/29 10:04:58;;;;;;;18.3;9.7;;;;;;;;;;;;;
2024/02/29 10:07:23;;;;;;;16.8;9;;;;;;;;;;;;;
2024/02/29 10:09:48;;;;;;;20.3;9.7;;;;;;;;;;;;;
2024/02/29 10:12:13;;;;;;;20.4;10.1;;;;;;;;;;;;;
2024/02/29 10:14:38;;;;;;;17.2;9.3;;;;;;;;;;;;;
2024/02/29 10:17:04;;;;;;;18.7;10.1;;;;;;;;;;;;;
2024/02/29 10:19:31;;;;;;;18.7;10.1;;;;;;;;;;;;;
2024/02/29 10:21:54;;;;;;;17;8.8;;;;;;;;;;;;;
2024/02/29 10:24:19;;;;;;;16.3;8.1;;;;;;;;;;;;;
2024/02/29 10:26:45;;;;;;;17.3;8.6;;;;;;;;;;;;;
2024/02/29 10:29:09;;;;;;;17.7;8.4;;;;;;;;;;;;;
2024/02/29 10:31:35;;;;;;;16.5;9;;;;;;;;;;;;;
2024/02/29 10:34:00;;;;;;;17.7;9.4;;;;;;;;;;;;;
2024/02/29 10:36:25;;;;;;;21.3;9.6;;;;;;;;;;;;;
2024/02/29 10:38:51;;;;;;;19.3;9.9;;;;;;;;;;;;;
2024/02/29 10:41:15;;;;;;;18.5;9.3;;;;;;;;;;;;;
2024/02/29 10:43:40;;;;;;;17.1;8.6;;;;;;;;;;;;;
2024/02/29 10:46:05;;;;;;;18.9;9.6;;;;;;;;;;;;;
2024/02/29 10:48:30;;;;;;;18.7;9.8;;;;;;;;;;;;;
2024/02/29 10:50:55;;;;;;;15.4;9.1;;;;;;;;;;;;;
2024/02/29 10:53:21;;;;;;;19.6;10.4;;;;;;;;;;;;;
2024/02/29 10:55:49;;;;;;;19.4;10.4;;;;;;;;;;;;;
2024/02/29 10:58:11;;;;;;;22;11.6;;;;;;;;;;;;;
2024/02/29 11:00:36;;;;;;;19.8;9.6;;;;;;;;;;;;;
2024/02/29 11:03:01;;;;;;;19.1;10.5;;;;;;;;;;;;;
2024/02/29 11:05:26;;;;;;;21.8;10.9;;;;;;;;;;;;;
2024/02/29 11:07:51;;;;;;;21.4;11.7;;;;;;;;;;;;;
2024/02/29 11:10:16;;;;;;;21;11.3;;;;;;;;;;;;;
2024/02/29 11:12:44;;;;;;;19.3;11;;;;;;;;;;;;;
2024/02/29 11:15:06;;;;;;;23.4;11.6;;;;;;;;;;;;;
2024/02/29 11:17:33;;;;;;;26.3;12.8;;;;;;;;;;;;;
2024/02/29 11:19:57;;;;;;;23.7;13;;;;;;;;;;;;;
2024/02/29 11:22:22;;;;;;;24.5;13.4;;;;;;;;;;;;;
2024/02/29 11:24:47;;;;;;;23.6;12.3;;;;;;;;;;;;;
2024/02/29 11:27:12;;;;;;;24.9;12.3;;;;;;;;;;;;;
2024/02/29 11:29:37;;;;;;;26.5;13;;;;;;;;;;;;;
2024/02/29 11:32:02;;;;;;;26.1;12.9;;;;;;;;;;;;;
2024/02/29 11:34:27;;;;;;;22.2;12.4;;;;;;;;;;;;;
2024/02/29 11:36:52;;;;;;;26.9;13.2;;;;;;;;;;;;;
2024/02/29 11:39:20;;;;;;;25.2;13.6;;;;;;;;;;;;;
2024/02/29 11:41:43;;;;;;;24.9;13.4;;;;;;;;;;;;;
2024/02/29 11:44:08;;;;;;;23.9;13.2;;;;;;;;;;;;;
2024/02/29 11:46:33;;;;;;;24.8;13;;;;;;;;;;;;;
2024/02/29 11:48:58;;;;;;;23;11.8;;;;;;;;;;;;;
2024/02/29 11:51:23;;;;;;;21.6;12;;;;;;;;;;;;;
2024/02/29 11:53:49;;;;;;;28;14.2;;;;;;;;;;;;;
2024/02/29 11:56:13;;;;;;;23.6;12.6;;;;;;;;;;;;;
2024/02/29 11:58:38;;;;;;;22;12.8;;;;;;;;;;;;;
2024/02/29 12:01:03;;;;;;;23.1;12.5;;;;;;;;;;;;;
2024/02/29 12:03:29;;;;;;;24.2;13;;;;;;;;;;;;;
2024/02/29 12:05:54;;;;;;;25.3;13.6;;;;;;;;;;;;;
2024/02/29 12:08:19;;;;;;;23.1;13.4;;;;;;;;;;;;;
2024/02/29 12:10:44;;;;;;;24.2;12.5;;;;;;;;;;;;;
2024/02/29 12:13:09;;;;;;;23.5;12.5;;;;;;;;;;;;;
2024/02/29 12:15:34;;;;;;;23.6;12.9;;;;;;;;;;;;;
2024/02/29 12:17:59;;;;;;;24.4;13.7;;;;;;;;;;;;;
2024/02/29 12:20:24;;;;;;;22.8;13.2;;;;;;;;;;;;;
2024/02/29 12:22:51;;;;;;;24.3;13.3;;;;;;;;;;;;;
2024/02/29 12:25:17;;;;;;;24.3;13.5;;;;;;;;;;;;;
2024/02/29 12:27:40;;;;;;;28.5;13.7;;;;;;;;;;;;;
2024/02/29 12:30:05;;;;;;;22.3;13;;;;;;;;;;;;;
2024/02/29 12:32:30;;;;;;;27.3;13.9;;;;;;;;;;;;;
2024/02/29 12:34:55;;;;;;;22.2;13.1;;;;;;;;;;;;;
2024/02/29 12:37:21;;;;;;;23.3;13.1;;;;;;;;;;;;;
2024/02/29 12:39:46;;;;;;;26.4;13.8;;;;;;;;;;;;;
2024/02/29 12:42:11;;;;;;;22.9;13.4;;;;;;;;;;;;;
2024/02/29 12:44:36;;;;;;;25.3;14.4;;;;;;;;;;;;;
2024/02/29 12:47:01;;;;;;;24.5;13.2;;;;;;;;;;;;;
2024/02/29 12:49:26;;;;;;;23.2;13.4;;;;;;;;;;;;;
2024/02/29 12:51:51;;;;;;;24;13;;;;;;;;;;;;;
2024/02/29 12:54:17;;;;;;;24.8;13.3;;;;;;;;;;;;;
2024/02/29 12:56:42;;;;;;;26.7;14.2;;;;;;;;;;;;;
2024/02/29 12:59:07;;;;;;;26.1;13.9;;;;;;;;;;;;;
2024/02/29 13:01:33;;;;;;;28;13.4;;;;;;;;;;;;;
2024/02/29 13:03:58;;;;;;;28.5;15;;;;;;;;;;;;;
2024/02/29 13:06:22;;;;;;;25.2;13.5;;;;;;;;;;;;;
2024/02/29 13:08:48;;;;;;;24.7;13.5;;;;;;;;;;;;;
2024/02/29 13:11:13;;;;;;;27.9;14.1;;;;;;;;;;;;;
2024/02/29 13:13:38;;;;;;;27;14.1;;;;;;;;;;;;;
2024/02/29 13:16:05;;;;;;;26.9;14.1;;;;;;;;;;;;;
2024/02/29 13:18:32;;;;;;;26.3;14.4;;;;;;;;;;;;;
2024/02/29 13:20:55;;;;;;;25.2;13.9;;;;;;;;;;;;;
2024/02/29 13:23:20;;;;;;;25.8;13.2;;;;;;;;;;;;;
2024/02/29 13:25:45;;;;;;;27.2;13.6;;;;;;;;;;;;;
2024/02/29 13:28:11;;;;;;;25.2;14.1;;;;;;;;;;;;;
2024/02/29 13:30:36;;;;;;;27;14.1;;;;;;;;;;;;;
2024/02/29 13:33:01;;;;;;;27.2;14.3;;;;;;;;;;;;;
2024/02/29 13:35:26;;;;;;;28.2;13.9;;;;;;;;;;;;;
2024/02/29 13:37:51;;;;;;;26.3;13.8;;;;;;;;;;;;;
2024/02/29 13:40:16;;;;;;;28.1;14;;;;;;;;;;;;;
2024/02/29 13:42:41;;;;;;;24.8;14;;;;;;;;;;;;;
2024/02/29 13:45:08;;;;;;;25.2;13.3;;;;;;;;;;;;;
2024/02/29 13:47:32;;;;;;;26.7;13.7;;;;;;;;;;;;;
2024/02/29 13:49:57;;;;;;;24.1;12.8;;;;;;;;;;;;;
2024/02/29 13:52:22;;;;;;;24;13.1;;;;;;;;;;;;;
2024/02/29 13:54:47;;;;;;;26.2;13.2;;;;;;;;;;;;;
2024/02/29 13:57:12;;;;;;;22.6;12.9;;;;;;;;;;;;;
2024/02/29 13:59:37;;;;;;;23.5;12.8;;;;;;;;;;;;;
2024/02/29 14:02:03;;;;;;;26.1;13.2;;;;;;;;;;;;;
2024/02/29 14:04:27;;;;;;;23.2;12.9;;;;;;;;;;;;;
2024/02/29 14:06:52;;;;;;;26.7;13.4;;;;;;;;;;;;;
2024/02/29 14:09:19;;;;;;;25.1;13.2;;;;;;;;;;;;;
2024/02/29 14:11:43;;;;;;;21.9;12.9;;;;;;;;;;;;;
2024/02/29 14:14:08;;;;;;;23.1;12.7;;;;;;;;;;;;;
2024/02/29 14:16:33;;;;;;;24.8;12.7;;;;;;;;;;;;;
2024/02/29 14:18:59;;;;;;;23.7;13.2;;;;;;;;;;;;;
2024/02/29 14:21:23;;;;;;;23.7;13.3;;;;;;;;;;;;;
2024/02/29 14:23:48;;;;;;;23.7;12.9;;;;;;;;;;;;;
2024/02/29 14:26:13;;;;;;;23.1;12.9;;;;;;;;;;;;;
2024/02/29 14:28:38;;;;;;;25.7;13.5;;;;;;;;;;;;;
2024/02/29 14:31:04;;;;;;;25.6;14;;;;;;;;;;;;;
2024/02/29 14:33:28;;;;;;;26;13.6;;;;;;;;;;;;;
2024/02/29 14:35:53;;;;;;;22.8;12.7;;;;;;;;;;;;;
2024/02/29 14:38:19;;;;;;;23.3;13.1;;;;;;;;;;;;;
2024/02/29 14:40:44;;;;;;;21.2;12.5;;;;;;;;;;;;;
2024/02/29 14:43:09;;;;;;;25.2;13;;;;;;;;;;;;;
2024/02/29 14:45:34;;;;;;;23;13.1;;;;;;;;;;;;;
2024/02/29 14:47:59;;;;;;;21.4;12.7;;;;;;;;;;;;;
2024/02/29 14:50:24;;;;;;;23.1;12.7;;;;;;;;;;;;;
2024/02/29 14:52:50;;;;;;;24.6;12.9;;;;;;;;;;;;;
2024/02/29 14:55:15;;;;;;;23.9;13.9;;;;;;;;;;;;;
2024/02/29 14:57:40;;;;;;;24.5;13.5;;;;;;;;;;;;;
2024/02/29 15:00:11;;;;;;;24.1;13.1;;;;;;;;;;;;;
2024/02/29 15:02:30;;;;;;;24.2;14.3;;;;;;;;;;;;;
2024/02/29 15:04:56;;;;;;;25.5;13.7;;;;;;;;;;;;;
2024/02/29 15:07:22;;;;;;;26.8;14;;;;;;;;;;;;;
2024/02/29 15:09:45;;;;;;;24.7;13.1;;;;;;;;;;;;;
2024/02/29 15:12:11;;;;;;;23;13;;;;;;;;;;;;;
2024/02/29 15:14:36;;;;;;;24;13.6;;;;;;;;;;;;;
2024/02/29 15:17:01;;;;;;;24.4;13.1;;;;;;;;;;;;;
2024/02/29 15:19:26;;;;;;;24.9;13.6;;;;;;;;;;;;;
2024/02/29 15:21:51;;;;;;;22.1;12.8;;;;;;;;;;;;;
2024/02/29 15:24:20;;;;;;;23.6;13;;;;;;;;;;;;;
2024/02/29 15:26:42;;;;;;;23.2;13.1;;;;;;;;;;;;;
2024/02/29 15:29:07;;;;;;;26.3;13.6;;;;;;;;;;;;;
2024/02/29 15:31:31;;;;;;;27.5;13.2;;;;;;;;;;;;;
2024/02/29 15:33:57;;;;;;;27.2;14.1;;;;;;;;;;;;;
2024/02/29 15:36:22;;;;;;;24.2;13.1;;;;;;;;;;;;;
2024/02/29 15:38:47;;;;;;;24.2;13;;;;;;;;;;;;;
2024/02/29 15:41:12;;;;;;;23.2;14;;;;;;;;;;;;;
2024/02/29 15:43:37;;;;;;;24.9;14.1;;;;;;;;;;;;;
2024/02/29 15:46:02;;;;;;;23.5;12.9;;;;;;;;;;;;;
2024/02/29 15:48:27;;;;;;;21.5;12.9;;;;;;;;;;;;;
2024/02/29 15:50:53;;;;;;;25.8;14.4;;;;;;;;;;;;;
2024/02/29 15:53:18;;;;;;;22.9;13.8;;;;;;;;;;;;;
2024/02/29 15:55:43;;;;;;;20.8;12.4;;;;;;;;;;;;;
2024/02/29 15:58:08;;;;;;;25.1;13.9;;;;;;;;;;;;;
2024/02/29 16:00:33;;;;;;;22.6;13.4;;;;;;;;;;;;;
2024/02/29 16:02:58;;;;;;;28.5;15.7;;;;;;;;;;;;;
2024/02/29 16:05:23;;;;;;;26.8;14.7;;;;;;;;;;;;;
2024/02/29 16:07:48;;;;;;;25.3;13.7;;;;;;;;;;;;;
2024/02/29 16:10:13;;;;;;;22.1;13.1;;;;;;;;;;;;;
2024/02/29 16:12:39;;;;;;;24.6;13.7;;;;;;;;;;;;;
2024/02/29 16:15:03;;;;;;;28.1;13.4;;;;;;;;;;;;;
2024/02/29 16:17:29;;;;;;;24.6;13.9;;;;;;;;;;;;;
2024/02/29 16:19:54;;;;;;;26.8;14.2;;;;;;;;;;;;;
2024/02/29 16:22:19;;;;;;;34.5;17;;;;;;;;;;;;;
2024/02/29 16:24:44;;;;;;;27.7;14.5;;;;;;;;;;;;;
2024/02/29 16:27:10;;;;;;;26.5;14.8;;;;;;;;;;;;;
2024/02/29 16:29:34;;;;;;;31.6;18;;;;;;;;;;;;;
2024/02/29 16:32:01;;;;;;;26.1;14.3;;;;;;;;;;;;;
2024/02/29 16:34:24;;;;;;;30.7;15.9;;;;;;;;;;;;;
2024/02/29 16:36:50;;;;;;;31.5;18.9;;;;;;;;;;;;;
2024/02/29 16:39:15;;;;;;;35.1;19.8;;;;;;;;;;;;;
2024/02/29 16:41:40;;;;;;;66.4;43.5;;;;;;;;;;;;;
2024/02/29 16:44:07;;;;;;;32.3;19.3;;;;;;;;;;;;;
2024/02/29 16:46:30;;;;;;;32;17.2;;;;;;;;;;;;;
2024/02/29 16:48:57;;;;;;;32.1;16.4;;;;;;;;;;;;;
2024/02/29 16:51:20;;;;;;;30.7;15;;;;;;;;;;;;;
2024/02/29 16:53:45;;;;;;;27.1;14;;;;;;;;;;;;;
2024/02/29 16:56:10;;;;;;;32.8;15.6;;;;;;;;;;;;;
2024/02/29 16:58:35;;;;;;;37.3;15.1;;;;;;;;;;;;;
2024/02/29 17:01:01;;;;;;;28.5;15.7;;;;;;;;;;;;;
2024/02/29 17:03:25;;;;;;;32.7;16.2;;;;;;;;;;;;;
2024/02/29 17:05:50;;;;;;;30.9;14.6;;;;;;;;;;;;;
2024/02/29 17:08:16;;;;;;;28.9;14.2;;;;;;;;;;;;;
2024/02/29 17:10:41;;;;;;;30.1;15.9;;;;;;;;;;;;;
2024/02/29 17:13:06;;;;;;;27.1;14.3;;;;;;;;;;;;;
2024/02/29 17:15:31;;;;;;;24.3;13.4;;;;;;;;;;;;;
2024/02/29 17:17:56;;;;;;;24.4;12.9;;;;;;;;;;;;;
2024/02/29 17:20:21;;;;;;;24.5;12.4;;;;;;;;;;;;;
2024/02/29 17:22:47;;;;;;;25;12.3;;;;;;;;;;;;;
2024/02/29 17:25:11;;;;;;;25.2;12.9;;;;;;;;;;;;;
2024/02/29 17:27:36;;;;;;;24.4;12.9;;;;;;;;;;;;;
2024/02/29 17:30:02;;;;;;;25.4;12.7;;;;;;;;;;;;;
2024/02/29 17:32:27;;;;;;;24.4;13.1;;;;;;;;;;;;;
2024/02/29 17:34:52;;;;;;;23.8;13.1;;;;;;;;;;;;;
2024/02/29 17:37:18;;;;;;;26.8;13.1;;;;;;;;;;;;;
2024/02/29 17:39:43;;;;;;;26.7;14.2;;;;;;;;;;;;;
2024/02/29 17:42:07;;;;;;;24;13.2;;;;;;;;;;;;;
2024/02/29 17:44:32;;;;;;;29.5;14.1;;;;;;;;;;;;;
2024/02/29 17:46:57;;;;;;;26.5;13.8;;;;;;;;;;;;;
2024/02/29 17:49:22;;;;;;;28;13.9;;;;;;;;;;;;;
2024/02/29 17:51:48;;;;;;;33.4;16.5;;;;;;;;;;;;;
2024/02/29 17:54:13;;;;;;;28;14.1;;;;;;;;;;;;;
2024/02/29 17:56:38;;;;;;;26.9;14.6;;;;;;;;;;;;;
2024/02/29 17:59:03;;;;;;;27.3;14.3;;;;;;;;;;;;;
2024/02/29 18:01:28;;;;;;;31.9;14.4;;;;;;;;;;;;;
2024/02/29 18:03:53;;;;;;;29.7;15.2;;;;;;;;;;;;;
2024/02/29 18:06:18;;;;;;;28.2;14.9;;;;;;;;;;;;;
2024/02/29 18:08:43;;;;;;;28;15.8;;;;;;;;;;;;;
2024/02/29 18:11:08;;;;;;;28.2;14.9;;;;;;;;;;;;;
2024/02/29 18:13:34;;;;;;;29.5;15.7;;;;;;;;;;;;;
2024/02/29 18:15:59;;;;;;;38.4;22.4;;;;;;;;;;;;;
2024/02/29 18:18:24;;;;;;;59.3;33.5;;;;;;;;;;;;;
2024/02/29 18:20:49;;;;;;;34.1;18.1;;;;;;;;;;;;;
2024/02/29 18:23:14;;;;;;;29.3;15.8;;;;;;;;;;;;;
2024/02/29 18:25:39;;;;;;;30;16.1;;;;;;;;;;;;;
2024/02/29 18:28:04;;;;;;;27.1;14.3;;;;;;;;;;;;;
2024/02/29 18:30:30;;;;;;;27.4;14.2;;;;;;;;;;;;;
2024/02/29 18:32:54;;;;;;;28.1;14.4;;;;;;;;;;;;;
2024/02/29 18:35:19;;;;;;;25.2;13.5;;;;;;;;;;;;;
2024/02/29 18:37:45;;;;;;;32.4;18.7;;;;;;;;;;;;;
2024/02/29 18:40:11;;;;;;;30.7;14.8;;;;;;;;;;;;;
2024/02/29 18:42:35;;;;;;;26.4;13.4;;;;;;;;;;;;;
2024/02/29 18:45:00;;;;;;;26.8;14.1;;;;;;;;;;;;;
2024/02/29 18:47:25;;;;;;;28.6;15.2;;;;;;;;;;;;;
2024/02/29 18:49:50;;;;;;;33.1;15.6;;;;;;;;;;;;;
2024/02/29 18:52:15;;;;;;;26.1;14.9;;;;;;;;;;;;;
2024/02/29 18:54:40;;;;;;;29;15.7;;;;;;;;;;;;;
2024/02/29 18:57:05;;;;;;;31.9;15.3;;;;;;;;;;;;;
2024/02/29 18:59:31;;;;;;;28.7;16.5;;;;;;;;;;;;;
2024/02/29 19:01:56;;;;;;;27.8;16.6;;;;;;;;;;;;;
2024/02/29 19:04:21;;;;;;;29.7;15.2;;;;;;;;;;;;;
2024/02/29 19:06:48;;;;;;;27.7;15.2;;;;;;;;;;;;;
2024/02/29 19:09:11;;;;;;;27.7;15.6;;;;;;;;;;;;;
2024/02/29 19:11:36;;;;;;;30;16.3;;;;;;;;;;;;;
2024/02/29 19:14:02;;;;;;;30.9;16.9;;;;;;;;;;;;;
2024/02/29 19:16:26;;;;;;;32.2;18;;;;;;;;;;;;;
2024/02/29 19:18:51;;;;;;;30.7;15.6;;;;;;;;;;;;;
2024/02/29 19:21:16;;;;;;;28.5;15.5;;;;;;;;;;;;;
2024/02/29 19:23:41;;;;;;;25.4;13.1;;;;;;;;;;;;;
2024/02/29 19:26:06;;;;;;;26;13.4;;;;;;;;;;;;;
2024/02/29 19:28:36;;;;;;;24.6;12.8;;;;;;;;;;;;;
2024/02/29 19:30:57;;;;;;;24.2;13.4;;;;;;;;;;;;;
2024/02/29 19:33:22;;;;;;;29.1;14.1;;;;;;;;;;;;;
2024/02/29 19:35:50;;;;;;;27;14.4;;;;;;;;;;;;;
2024/02/29 19:38:13;;;;;;;32.5;16.1;;;;;;;;;;;;;
2024/02/29 19:40:38;;;;;;;28.4;14.8;;;;;;;;;;;;;
2024/02/29 19:43:02;;;;;;;26.6;13.9;;;;;;;;;;;;;
2024/02/29 19:45:28;;;;;;;22.7;12.8;;;;;;;;;;;;;
2024/02/29 19:47:53;;;;;;;21.7;11.7;;;;;;;;;;;;;